Seville, Georgia
Current Conditions -  °F | °C
As of 8:35 PM on Monday 22 Dec 2014 (Local Time) from KCKF Reporting Station
Haze Haze  
Wind Chill: 53°   Ceiling: 300
Heat Index: 53°   Visibility: 2.5mi
Dew Point: 52°   Wind: 5mph
Humidity: 95%   Direction: 80°E
Pressure: 29.93"   Gusts: NA
Location:  31.96°N, 83.6°W
Report Text: KCKF 230135Z AUTO 08004KT 2 1/2SM BR OVC003 12/11 A2993 RMK AO2 T01160109
Loading
Personal Weather Stations






























Interactive Weather Map New forecast layout! Learn more

10-Day Weather Forecast

Advertisements
Track Severe Weather on mobile